sensor_id;sensor_type;location;lat;lon;timestamp;temperature;humidity
7206;DHT22;3644;53.480;10.004;2022-08-21T00:01:03;17.50;99.90
7206;DHT22;3644;53.480;10.004;2022-08-21T00:03:31;17.50;99.90
7206;DHT22;3644;53.480;10.004;2022-08-21T00:05:56;17.50;99.90
7206;DHT22;3644;53.480;10.004;2022-08-21T00:08:22;17.40;99.90
7206;DHT22;3644;53.480;10.004;2022-08-21T00:10:48;17.40;99.90
7206;DHT22;3644;53.480;10.004;2022-08-21T00:13:14;17.40;99.90
7206;DHT22;3644;53.480;10.004;2022-08-21T00:15:41;17.40;99.90
7206;DHT22;3644;53.480;10.004;2022-08-21T00:18:08;17.40;99.90
7206;DHT22;3644;53.480;10.004;2022-08-21T00:20:36;17.30;99.90
7206;DHT22;3644;53.480;10.004;2022-08-21T00:23:02;17.30;99.90
7206;DHT22;3644;53.480;10.004;2022-08-21T00:25:27;17.30;99.90
7206;DHT22;3644;53.480;10.004;2022-08-21T00:27:54;17.30;99.90
7206;DHT22;3644;53.480;10.004;2022-08-21T00:30:22;17.30;99.90
7206;DHT22;3644;53.480;10.004;2022-08-21T00:32:48;17.20;99.90
7206;DHT22;3644;53.480;10.004;2022-08-21T00:35:17;17.20;99.90
7206;DHT22;3644;53.480;10.004;2022-08-21T00:37:43;17.10;99.90
7206;DHT22;3644;53.480;10.004;2022-08-21T00:40:13;17.20;99.90
7206;DHT22;3644;53.480;10.004;2022-08-21T00:42:39;17.20;99.90
7206;DHT22;3644;53.480;10.004;2022-08-21T00:45:07;17.10;99.90
7206;DHT22;3644;53.480;10.004;2022-08-21T00:47:32;17.10;99.90
7206;DHT22;3644;53.480;10.004;2022-08-21T00:49:58;17.10;99.90
7206;DHT22;3644;53.480;10.004;2022-08-21T00:52:27;17.10;99.90
7206;DHT22;3644;53.480;10.004;2022-08-21T00:54:55;17.00;99.90
7206;DHT22;3644;53.480;10.004;2022-08-21T00:57:26;17.00;99.90
7206;DHT22;3644;53.480;10.004;2022-08-21T00:59:56;17.00;99.90
7206;DHT22;3644;53.480;10.004;2022-08-21T01:02:24;16.90;99.90
7206;DHT22;3644;53.480;10.004;2022-08-21T01:04:49;16.90;99.90
7206;DHT22;3644;53.480;10.004;2022-08-21T01:07:15;16.90;99.90
7206;DHT22;3644;53.480;10.004;2022-08-21T01:09:41;16.90;99.90
7206;DHT22;3644;53.480;10.004;2022-08-21T01:12:07;16.80;99.90
7206;DHT22;3644;53.480;10.004;2022-08-21T01:14:33;16.80;99.90
7206;DHT22;3644;53.480;10.004;2022-08-21T01:17:00;16.90;99.90
7206;DHT22;3644;53.480;10.004;2022-08-21T01:19:29;16.80;99.90
7206;DHT22;3644;53.480;10.004;2022-08-21T01:21:55;16.90;99.90
7206;DHT22;3644;53.480;10.004;2022-08-21T01:24:21;16.80;99.90
7206;DHT22;3644;53.480;10.004;2022-08-21T01:26:49;16.80;99.90
7206;DHT22;3644;53.480;10.004;2022-08-21T01:31:45;16.70;99.90
7206;DHT22;3644;53.480;10.004;2022-08-21T01:34:11;16.70;99.90
7206;DHT22;3644;53.480;10.004;2022-08-21T01:36:37;16.70;99.90
7206;DHT22;3644;53.480;10.004;2022-08-21T01:39:04;16.70;99.90
7206;DHT22;3644;53.480;10.004;2022-08-21T01:41:30;16.60;99.90
7206;DHT22;3644;53.480;10.004;2022-08-21T01:43:56;16.60;99.90
7206;DHT22;3644;53.480;10.004;2022-08-21T01:46:21;16.60;99.90
7206;DHT22;3644;53.480;10.004;2022-08-21T01:48:47;16.60;99.90
7206;DHT22;3644;53.480;10.004;2022-08-21T01:51:13;16.50;99.90
7206;DHT22;3644;53.480;10.004;2022-08-21T01:53:39;16.60;99.90
7206;DHT22;3644;53.480;10.004;2022-08-21T01:56:07;16.60;99.90
7206;DHT22;3644;53.480;10.004;2022-08-21T01:58:33;16.60;99.90
7206;DHT22;3644;53.480;10.004;2022-08-21T02:01:00;16.60;99.90
7206;DHT22;3644;53.480;10.004;2022-08-21T02:03:27;16.60;99.90
7206;DHT22;3644;53.480;10.004;2022-08-21T02:05:53;16.60;99.90
7206;DHT22;3644;53.480;10.004;2022-08-21T02:08:18;16.60;99.90
7206;DHT22;3644;53.480;10.004;2022-08-21T02:10:44;16.50;99.90
7206;DHT22;3644;53.480;10.004;2022-08-21T02:13:09;16.50;99.90
7206;DHT22;3644;53.480;10.004;2022-08-21T02:15:35;16.40;99.90
7206;DHT22;3644;53.480;10.004;2022-08-21T02:18:02;16.50;99.90
7206;DHT22;3644;53.480;10.004;2022-08-21T02:20:35;16.30;99.90
7206;DHT22;3644;53.480;10.004;2022-08-21T02:23:01;16.30;99.90
7206;DHT22;3644;53.480;10.004;2022-08-21T02:25:27;16.40;99.90
7206;DHT22;3644;53.480;10.004;2022-08-21T02:27:53;16.30;99.90
7206;DHT22;3644;53.480;10.004;2022-08-21T02:30:29;16.40;99.90
7206;DHT22;3644;53.480;10.004;2022-08-21T02:32:55;16.30;99.90
7206;DHT22;3644;53.480;10.004;2022-08-21T02:35:21;16.30;99.90
7206;DHT22;3644;53.480;10.004;2022-08-21T02:38:10;16.30;99.90
7206;DHT22;3644;53.480;10.004;2022-08-21T02:40:36;16.30;99.90
7206;DHT22;3644;53.480;10.004;2022-08-21T02:43:04;16.20;99.90
7206;DHT22;3644;53.480;10.004;2022-08-21T02:45:30;16.30;99.90
7206;DHT22;3644;53.480;10.004;2022-08-21T02:47:58;16.20;99.90
7206;DHT22;3644;53.480;10.004;2022-08-21T02:50:29;16.30;99.90
7206;DHT22;3644;53.480;10.004;2022-08-21T02:52:56;16.30;99.90
7206;DHT22;3644;53.480;10.004;2022-08-21T02:55:23;16.20;99.90
7206;DHT22;3644;53.480;10.004;2022-08-21T02:57:52;16.30;99.90
7206;DHT22;3644;53.480;10.004;2022-08-21T03:00:19;16.30;99.90
7206;DHT22;3644;53.480;10.004;2022-08-21T03:02:46;16.30;99.90
7206;DHT22;3644;53.480;10.004;2022-08-21T03:05:13;16.20;99.90
7206;DHT22;3644;53.480;10.004;2022-08-21T03:07:40;16.30;99.90
7206;DHT22;3644;53.480;10.004;2022-08-21T03:10:06;16.20;99.90
7206;DHT22;3644;53.480;10.004;2022-08-21T03:12:32;16.10;99.90
7206;DHT22;3644;53.480;10.004;2022-08-21T03:14:57;16.20;99.90
7206;DHT22;3644;53.480;10.004;2022-08-21T03:17:24;16.20;99.90
7206;DHT22;3644;53.480;10.004;2022-08-21T03:19:50;16.20;99.90
7206;DHT22;3644;53.480;10.004;2022-08-21T03:22:15;16.10;99.90
7206;DHT22;3644;53.480;10.004;2022-08-21T03:24:41;16.10;99.90
7206;DHT22;3644;53.480;10.004;2022-08-21T03:27:06;16.00;99.90
7206;DHT22;3644;53.480;10.004;2022-08-21T03:29:32;16.10;99.90
7206;DHT22;3644;53.480;10.004;2022-08-21T03:31:57;16.10;99.90
7206;DHT22;3644;53.480;10.004;2022-08-21T03:34:23;16.10;99.90
7206;DHT22;3644;53.480;10.004;2022-08-21T03:36:49;16.00;99.90
7206;DHT22;3644;53.480;10.004;2022-08-21T03:39:15;16.00;99.90
7206;DHT22;3644;53.480;10.004;2022-08-21T03:41:41;15.90;99.90
7206;DHT22;3644;53.480;10.004;2022-08-21T03:44:07;16.00;99.90
7206;DHT22;3644;53.480;10.004;2022-08-21T03:46:33;16.00;99.90
7206;DHT22;3644;53.480;10.004;2022-08-21T03:48:59;15.90;99.90
7206;DHT22;3644;53.480;10.004;2022-08-21T03:51:25;15.90;99.90
7206;DHT22;3644;53.480;10.004;2022-08-21T03:53:50;15.90;99.90
7206;DHT22;3644;53.480;10.004;2022-08-21T03:56:16;15.90;99.90
7206;DHT22;3644;53.480;10.004;2022-08-21T03:58:42;15.90;99.90
7206;DHT22;3644;53.480;10.004;2022-08-21T04:01:07;15.90;99.90
7206;DHT22;3644;53.480;10.004;2022-08-21T04:03:36;15.90;99.90
7206;DHT22;3644;53.480;10.004;2022-08-21T04:06:02;15.90;99.90
7206;DHT22;3644;53.480;10.004;2022-08-21T04:08:28;15.80;99.90
7206;DHT22;3644;53.480;10.004;2022-08-21T04:10:55;15.90;99.90
7206;DHT22;3644;53.480;10.004;2022-08-21T04:13:22;15.80;99.90
7206;DHT22;3644;53.480;10.004;2022-08-21T04:15:48;15.90;99.90
7206;DHT22;3644;53.480;10.004;2022-08-21T04:18:14;15.90;99.90
7206;DHT22;3644;53.480;10.004;2022-08-21T04:20:41;15.80;99.90
7206;DHT22;3644;53.480;10.004;2022-08-21T04:23:07;15.80;99.90
7206;DHT22;3644;53.480;10.004;2022-08-21T04:25:33;15.80;99.90
7206;DHT22;3644;53.480;10.004;2022-08-21T04:27:58;15.80;99.90
7206;DHT22;3644;53.480;10.004;2022-08-21T04:30:24;15.80;99.90
7206;DHT22;3644;53.480;10.004;2022-08-21T04:32:51;15.80;99.90
7206;DHT22;3644;53.480;10.004;2022-08-21T04:35:19;15.80;99.90
7206;DHT22;3644;53.480;10.004;2022-08-21T04:37:45;15.80;99.90
7206;DHT22;3644;53.480;10.004;2022-08-21T04:40:13;15.80;99.90
7206;DHT22;3644;53.480;10.004;2022-08-21T04:42:56;15.80;99.90
7206;DHT22;3644;53.480;10.004;2022-08-21T04:45:38;15.90;99.90
7206;DHT22;3644;53.480;10.004;2022-08-21T04:48:07;16.00;99.90
7206;DHT22;3644;53.480;10.004;2022-08-21T04:50:59;16.00;99.90
7206;DHT22;3644;53.480;10.004;2022-08-21T04:53:41;16.10;99.90
7206;DHT22;3644;53.480;10.004;2022-08-21T04:56:16;16.10;99.90
7206;DHT22;3644;53.480;10.004;2022-08-21T04:58:43;16.10;99.90
7206;DHT22;3644;53.480;10.004;2022-08-21T05:01:17;16.10;99.90
7206;DHT22;3644;53.480;10.004;2022-08-21T05:03:44;16.10;99.90
7206;DHT22;3644;53.480;10.004;2022-08-21T05:06:11;16.10;99.90
7206;DHT22;3644;53.480;10.004;2022-08-21T05:08:38;16.00;99.90
7206;DHT22;3644;53.480;10.004;2022-08-21T05:11:05;16.10;99.90
7206;DHT22;3644;53.480;10.004;2022-08-21T05:13:31;16.00;99.90
7206;DHT22;3644;53.480;10.004;2022-08-21T05:15:57;16.00;99.90
7206;DHT22;3644;53.480;10.004;2022-08-21T05:18:22;16.10;99.90
7206;DHT22;3644;53.480;10.004;2022-08-21T05:20:49;16.10;99.90
7206;DHT22;3644;53.480;10.004;2022-08-21T05:23:14;16.20;99.90
7206;DHT22;3644;53.480;10.004;2022-08-21T05:25:41;16.40;99.90
7206;DHT22;3644;53.480;10.004;2022-08-21T05:28:07;16.40;99.90
7206;DHT22;3644;53.480;10.004;2022-08-21T05:30:33;16.40;99.90
7206;DHT22;3644;53.480;10.004;2022-08-21T05:33:00;16.40;99.90
7206;DHT22;3644;53.480;10.004;2022-08-21T05:35:27;16.50;99.90
7206;DHT22;3644;53.480;10.004;2022-08-21T05:37:53;16.50;99.90
7206;DHT22;3644;53.480;10.004;2022-08-21T05:40:19;16.50;99.90
7206;DHT22;3644;53.480;10.004;2022-08-21T05:42:44;16.50;99.90
7206;DHT22;3644;53.480;10.004;2022-08-21T05:45:10;16.60;99.90
7206;DHT22;3644;53.480;10.004;2022-08-21T05:47:36;16.70;99.90
7206;DHT22;3644;53.480;10.004;2022-08-21T05:50:02;16.80;99.90
7206;DHT22;3644;53.480;10.004;2022-08-21T05:52:27;16.70;99.90
7206;DHT22;3644;53.480;10.004;2022-08-21T05:54:53;16.70;99.90
7206;DHT22;3644;53.480;10.004;2022-08-21T05:57:19;16.80;99.90
7206;DHT22;3644;53.480;10.004;2022-08-21T05:59:45;16.90;99.90
7206;DHT22;3644;53.480;10.004;2022-08-21T06:02:11;17.00;99.90
7206;DHT22;3644;53.480;10.004;2022-08-21T06:04:38;17.20;99.90
7206;DHT22;3644;53.480;10.004;2022-08-21T06:07:04;17.20;99.90
7206;DHT22;3644;53.480;10.004;2022-08-21T06:09:30;17.30;99.90
7206;DHT22;3644;53.480;10.004;2022-08-21T06:11:55;17.40;99.90
7206;DHT22;3644;53.480;10.004;2022-08-21T06:14:21;17.40;99.90
7206;DHT22;3644;53.480;10.004;2022-08-21T06:16:46;17.50;99.90
7206;DHT22;3644;53.480;10.004;2022-08-21T06:19:12;17.60;99.90
7206;DHT22;3644;53.480;10.004;2022-08-21T06:21:38;17.70;99.90
7206;DHT22;3644;53.480;10.004;2022-08-21T06:24:04;17.80;99.90
7206;DHT22;3644;53.480;10.004;2022-08-21T06:26:30;17.80;99.90
7206;DHT22;3644;53.480;10.004;2022-08-21T06:28:56;17.90;99.90
7206;DHT22;3644;53.480;10.004;2022-08-21T06:31:23;18.00;99.90
7206;DHT22;3644;53.480;10.004;2022-08-21T06:33:50;18.10;99.90
7206;DHT22;3644;53.480;10.004;2022-08-21T06:36:16;18.10;99.90
7206;DHT22;3644;53.480;10.004;2022-08-21T06:38:42;18.20;99.90
7206;DHT22;3644;53.480;10.004;2022-08-21T06:41:08;18.30;99.90
7206;DHT22;3644;53.480;10.004;2022-08-21T06:43:33;18.30;99.90
7206;DHT22;3644;53.480;10.004;2022-08-21T06:45:59;18.30;99.90
7206;DHT22;3644;53.480;10.004;2022-08-21T06:48:24;18.40;99.90
7206;DHT22;3644;53.480;10.004;2022-08-21T06:50:50;18.40;99.90
7206;DHT22;3644;53.480;10.004;2022-08-21T06:53:18;18.50;99.90
7206;DHT22;3644;53.480;10.004;2022-08-21T06:55:44;18.60;99.90
7206;DHT22;3644;53.480;10.004;2022-08-21T06:58:10;18.70;99.90
7206;DHT22;3644;53.480;10.004;2022-08-21T07:00:40;18.60;99.90
7206;DHT22;3644;53.480;10.004;2022-08-21T07:03:06;18.60;99.90
7206;DHT22;3644;53.480;10.004;2022-08-21T07:05:31;18.70;99.90
7206;DHT22;3644;53.480;10.004;2022-08-21T07:07:57;18.80;99.90
7206;DHT22;3644;53.480;10.004;2022-08-21T07:10:24;18.80;99.90
7206;DHT22;3644;53.480;10.004;2022-08-21T07:12:51;18.90;99.90
7206;DHT22;3644;53.480;10.004;2022-08-21T07:15:17;18.70;99.90
7206;DHT22;3644;53.480;10.004;2022-08-21T07:17:43;18.60;99.90
7206;DHT22;3644;53.480;10.004;2022-08-21T07:20:09;18.70;99.90
7206;DHT22;3644;53.480;10.004;2022-08-21T07:22:36;18.60;99.90
7206;DHT22;3644;53.480;10.004;2022-08-21T07:25:04;18.70;99.90
7206;DHT22;3644;53.480;10.004;2022-08-21T07:27:29;18.80;99.90
7206;DHT22;3644;53.480;10.004;2022-08-21T07:29:56;18.80;99.90
7206;DHT22;3644;53.480;10.004;2022-08-21T07:32:22;18.90;99.90
7206;DHT22;3644;53.480;10.004;2022-08-21T07:34:47;19.00;99.90
7206;DHT22;3644;53.480;10.004;2022-08-21T07:37:13;19.20;99.90
7206;DHT22;3644;53.480;10.004;2022-08-21T07:39:38;19.30;99.90
7206;DHT22;3644;53.480;10.004;2022-08-21T07:42:04;19.40;99.90
7206;DHT22;3644;53.480;10.004;2022-08-21T07:44:30;19.30;99.90
7206;DHT22;3644;53.480;10.004;2022-08-21T07:46:55;19.40;99.90
7206;DHT22;3644;53.480;10.004;2022-08-21T07:49:21;19.50;99.90
7206;DHT22;3644;53.480;10.004;2022-08-21T07:51:46;19.60;99.90
7206;DHT22;3644;53.480;10.004;2022-08-21T07:54:11;19.80;99.90
7206;DHT22;3644;53.480;10.004;2022-08-21T07:56:37;19.90;99.90
7206;DHT22;3644;53.480;10.004;2022-08-21T07:59:03;19.90;99.90
7206;DHT22;3644;53.480;10.004;2022-08-21T08:01:29;20.10;99.90
7206;DHT22;3644;53.480;10.004;2022-08-21T08:03:55;20.20;99.90
7206;DHT22;3644;53.480;10.004;2022-08-21T08:06:21;20.40;99.90
7206;DHT22;3644;53.480;10.004;2022-08-21T08:08:46;20.50;99.90
7206;DHT22;3644;53.480;10.004;2022-08-21T08:11:13;20.60;99.90
7206;DHT22;3644;53.480;10.004;2022-08-21T08:13:47;20.70;99.90
7206;DHT22;3644;53.480;10.004;2022-08-21T08:16:14;20.80;99.90
7206;DHT22;3644;53.480;10.004;2022-08-21T08:18:39;20.90;99.90
7206;DHT22;3644;53.480;10.004;2022-08-21T08:21:06;21.00;99.90
7206;DHT22;3644;53.480;10.004;2022-08-21T08:23:32;21.10;99.90
7206;DHT22;3644;53.480;10.004;2022-08-21T08:25:58;21.20;99.90
7206;DHT22;3644;53.480;10.004;2022-08-21T08:28:25;21.30;99.90
7206;DHT22;3644;53.480;10.004;2022-08-21T08:30:51;21.50;99.90
7206;DHT22;3644;53.480;10.004;2022-08-21T08:33:16;21.60;99.90
7206;DHT22;3644;53.480;10.004;2022-08-21T08:35:47;21.80;99.90
7206;DHT22;3644;53.480;10.004;2022-08-21T08:38:14;22.00;99.90
7206;DHT22;3644;53.480;10.004;2022-08-21T08:43:26;22.10;99.90
7206;DHT22;3644;53.480;10.004;2022-08-21T08:45:54;22.10;99.90
7206;DHT22;3644;53.480;10.004;2022-08-21T08:48:50;22.20;99.90
7206;DHT22;3644;53.480;10.004;2022-08-21T08:51:23;22.30;99.90
7206;DHT22;3644;53.480;10.004;2022-08-21T08:54:06;22.30;99.90
7206;DHT22;3644;53.480;10.004;2022-08-21T08:56:34;22.40;99.90
7206;DHT22;3644;53.480;10.004;2022-08-21T08:59:12;22.10;99.90
7206;DHT22;3644;53.480;10.004;2022-08-21T09:01:39;22.30;99.90
7206;DHT22;3644;53.480;10.004;2022-08-21T09:04:05;22.40;99.90
7206;DHT22;3644;53.480;10.004;2022-08-21T09:20:19;23.00;99.90
7206;DHT22;3644;53.480;10.004;2022-08-21T09:23:11;23.10;99.90
7206;DHT22;3644;53.480;10.004;2022-08-21T09:26:07;23.20;99.90
7206;DHT22;3644;53.480;10.004;2022-08-21T09:28:34;23.20;99.90
7206;DHT22;3644;53.480;10.004;2022-08-21T09:31:02;23.20;99.90
7206;DHT22;3644;53.480;10.004;2022-08-21T09:33:29;23.20;99.90
7206;DHT22;3644;53.480;10.004;2022-08-21T09:35:55;23.50;99.90
7206;DHT22;3644;53.480;10.004;2022-08-21T09:38:27;23.50;99.90
7206;DHT22;3644;53.480;10.004;2022-08-21T09:41:01;23.40;99.90
7206;DHT22;3644;53.480;10.004;2022-08-21T09:43:27;23.50;99.90
7206;DHT22;3644;53.480;10.004;2022-08-21T09:46:23;23.50;99.90
7206;DHT22;3644;53.480;10.004;2022-08-21T09:48:51;23.70;99.90
7206;DHT22;3644;53.480;10.004;2022-08-21T09:51:21;23.80;99.90
7206;DHT22;3644;53.480;10.004;2022-08-21T09:53:58;23.90;99.90
7206;DHT22;3644;53.480;10.004;2022-08-21T09:56:53;24.00;99.90
7206;DHT22;3644;53.480;10.004;2022-08-21T09:59:39;23.70;99.90
7206;DHT22;3644;53.480;10.004;2022-08-21T10:02:29;23.90;99.90
7206;DHT22;3644;53.480;10.004;2022-08-21T10:05:08;24.10;99.90
7206;DHT22;3644;53.480;10.004;2022-08-21T10:07:37;24.30;99.90
7206;DHT22;3644;53.480;10.004;2022-08-21T10:10:07;24.40;99.90
7206;DHT22;3644;53.480;10.004;2022-08-21T10:12:46;24.30;99.90
7206;DHT22;3644;53.480;10.004;2022-08-21T10:18:38;24.40;99.90
7206;DHT22;3644;53.480;10.004;2022-08-21T10:21:24;24.30;99.90
7206;DHT22;3644;53.480;10.004;2022-08-21T10:27:09;24.20;99.90
7206;DHT22;3644;53.480;10.004;2022-08-21T10:32:27;24.60;99.90
7206;DHT22;3644;53.480;10.004;2022-08-21T10:35:08;24.70;99.90
7206;DHT22;3644;53.480;10.004;2022-08-21T10:40:50;24.90;99.90
7206;DHT22;3644;53.480;10.004;2022-08-21T10:43:34;24.60;99.90
7206;DHT22;3644;53.480;10.004;2022-08-21T10:46:15;24.50;99.90
7206;DHT22;3644;53.480;10.004;2022-08-21T10:48:59;24.60;99.90
7206;DHT22;3644;53.480;10.004;2022-08-21T10:51:51;24.70;99.90
7206;DHT22;3644;53.480;10.004;2022-08-21T10:54:21;24.90;99.90
7206;DHT22;3644;53.480;10.004;2022-08-21T10:56:51;25.10;99.90
7206;DHT22;3644;53.480;10.004;2022-08-21T10:59:27;25.10;99.90
7206;DHT22;3644;53.480;10.004;2022-08-21T11:05:01;25.00;99.90
7206;DHT22;3644;53.480;10.004;2022-08-21T11:07:39;25.00;99.90
7206;DHT22;3644;53.480;10.004;2022-08-21T11:10:39;25.10;99.90
7206;DHT22;3644;53.480;10.004;2022-08-21T11:13:17;25.40;99.90
7206;DHT22;3644;53.480;10.004;2022-08-21T11:16:00;25.50;99.90
7206;DHT22;3644;53.480;10.004;2022-08-21T11:19:00;25.60;99.90
7206;DHT22;3644;53.480;10.004;2022-08-21T11:26:44;25.70;99.90
7206;DHT22;3644;53.480;10.004;2022-08-21T11:29:27;25.80;99.90
7206;DHT22;3644;53.480;10.004;2022-08-21T11:35:05;26.00;99.90
7206;DHT22;3644;53.480;10.004;2022-08-21T11:48:26;26.00;99.90
7206;DHT22;3644;53.480;10.004;2022-08-21T11:50:56;25.90;99.90
7206;DHT22;3644;53.480;10.004;2022-08-21T11:53:31;26.10;99.90
7206;DHT22;3644;53.480;10.004;2022-08-21T11:56:12;26.30;99.90
7206;DHT22;3644;53.480;10.004;2022-08-21T11:58:51;26.30;98.20
7206;DHT22;3644;53.480;10.004;2022-08-21T12:01:34;26.40;99.90
7206;DHT22;3644;53.480;10.004;2022-08-21T12:04:05;26.60;99.50
7206;DHT22;3644;53.480;10.004;2022-08-21T12:06:36;26.80;99.40
7206;DHT22;3644;53.480;10.004;2022-08-21T12:09:11;27.00;99.90
7206;DHT22;3644;53.480;10.004;2022-08-21T12:12:13;27.40;99.90
7206;DHT22;3644;53.480;10.004;2022-08-21T12:14:50;27.70;98.90
7206;DHT22;3644;53.480;10.004;2022-08-21T12:17:21;27.80;97.10
7206;DHT22;3644;53.480;10.004;2022-08-21T12:19:58;27.50;96.60
7206;DHT22;3644;53.480;10.004;2022-08-21T12:22:36;27.40;96.00
7206;DHT22;3644;53.480;10.004;2022-08-21T12:25:11;26.80;97.50
7206;DHT22;3644;53.480;10.004;2022-08-21T12:27:50;26.70;99.60
7206;DHT22;3644;53.480;10.004;2022-08-21T12:30:34;26.60;98.70
7206;DHT22;3644;53.480;10.004;2022-08-21T12:33:06;26.70;98.90
7206;DHT22;3644;53.480;10.004;2022-08-21T12:35:40;26.80;98.90
7206;DHT22;3644;53.480;10.004;2022-08-21T12:38:26;26.80;98.10
7206;DHT22;3644;53.480;10.004;2022-08-21T12:43:30;26.60;97.50
7206;DHT22;3644;53.480;10.004;2022-08-21T12:45:56;26.70;99.00
7206;DHT22;3644;53.480;10.004;2022-08-21T12:48:33;26.40;97.30
7206;DHT22;3644;53.480;10.004;2022-08-21T12:51:17;26.50;98.00
7206;DHT22;3644;53.480;10.004;2022-08-21T12:53:55;26.30;98.00
7206;DHT22;3644;53.480;10.004;2022-08-21T12:56:23;26.10;97.70
7206;DHT22;3644;53.480;10.004;2022-08-21T12:58:54;26.10;97.50
7206;DHT22;3644;53.480;10.004;2022-08-21T13:01:48;26.10;98.10
7206;DHT22;3644;53.480;10.004;2022-08-21T13:04:21;26.10;98.30
7206;DHT22;3644;53.480;10.004;2022-08-21T13:06:50;26.00;99.30
7206;DHT22;3644;53.480;10.004;2022-08-21T13:09:20;26.00;97.70
7206;DHT22;3644;53.480;10.004;2022-08-21T13:11:49;25.80;97.50
7206;DHT22;3644;53.480;10.004;2022-08-21T13:14:39;25.80;97.60
7206;DHT22;3644;53.480;10.004;2022-08-21T13:17:06;25.70;99.10
7206;DHT22;3644;53.480;10.004;2022-08-21T13:19:32;25.80;98.40
7206;DHT22;3644;53.480;10.004;2022-08-21T13:21:59;25.90;98.30
7206;DHT22;3644;53.480;10.004;2022-08-21T13:24:34;26.00;98.30
7206;DHT22;3644;53.480;10.004;2022-08-21T13:27:00;26.20;97.80
7206;DHT22;3644;53.480;10.004;2022-08-21T13:29:32;26.20;97.60
7206;DHT22;3644;53.480;10.004;2022-08-21T13:32:02;26.60;97.50
7206;DHT22;3644;53.480;10.004;2022-08-21T13:34:36;26.70;95.40
7206;DHT22;3644;53.480;10.004;2022-08-21T13:37:05;26.90;95.90
7206;DHT22;3644;53.480;10.004;2022-08-21T13:39:31;26.80;94.30
7206;DHT22;3644;53.480;10.004;2022-08-21T13:41:59;27.00;96.10
7206;DHT22;3644;53.480;10.004;2022-08-21T13:44:39;27.00;95.20
7206;DHT22;3644;53.480;10.004;2022-08-21T13:47:06;27.30;96.50
7206;DHT22;3644;53.480;10.004;2022-08-21T13:49:42;27.30;94.70
7206;DHT22;3644;53.480;10.004;2022-08-21T13:52:18;27.30;94.50
7206;DHT22;3644;53.480;10.004;2022-08-21T13:57:29;27.30;93.50
7206;DHT22;3644;53.480;10.004;2022-08-21T14:00:28;27.20;93.00
7206;DHT22;3644;53.480;10.004;2022-08-21T14:03:01;27.30;93.80
7206;DHT22;3644;53.480;10.004;2022-08-21T14:05:29;27.00;93.50
7206;DHT22;3644;53.480;10.004;2022-08-21T14:08:10;27.10;93.70
7206;DHT22;3644;53.480;10.004;2022-08-21T14:10:43;27.00;93.20
7206;DHT22;3644;53.480;10.004;2022-08-21T14:16:00;27.10;94.80
7206;DHT22;3644;53.480;10.004;2022-08-21T14:18:27;27.30;93.30
7206;DHT22;3644;53.480;10.004;2022-08-21T14:21:09;27.40;93.40
7206;DHT22;3644;53.480;10.004;2022-08-21T14:23:35;27.20;92.80
7206;DHT22;3644;53.480;10.004;2022-08-21T14:26:03;27.00;93.90
7206;DHT22;3644;53.480;10.004;2022-08-21T14:28:40;27.00;94.40
7206;DHT22;3644;53.480;10.004;2022-08-21T14:31:14;26.90;94.60
7206;DHT22;3644;53.480;10.004;2022-08-21T14:33:41;27.20;94.30
7206;DHT22;3644;53.480;10.004;2022-08-21T14:36:06;27.40;93.10
7206;DHT22;3644;53.480;10.004;2022-08-21T14:38:35;27.40;93.20
7206;DHT22;3644;53.480;10.004;2022-08-21T14:41:11;27.40;94.10
7206;DHT22;3644;53.480;10.004;2022-08-21T14:43:41;27.30;93.20
7206;DHT22;3644;53.480;10.004;2022-08-21T14:46:07;27.30;93.60
7206;DHT22;3644;53.480;10.004;2022-08-21T14:48:32;27.30;93.10
7206;DHT22;3644;53.480;10.004;2022-08-21T14:50:58;27.30;92.70
7206;DHT22;3644;53.480;10.004;2022-08-21T14:53:24;27.30;93.00
7206;DHT22;3644;53.480;10.004;2022-08-21T14:55:49;27.30;94.80
7206;DHT22;3644;53.480;10.004;2022-08-21T14:58:30;27.40;94.00
7206;DHT22;3644;53.480;10.004;2022-08-21T15:00:56;27.70;94.10
7206;DHT22;3644;53.480;10.004;2022-08-21T15:03:24;27.80;92.80
7206;DHT22;3644;53.480;10.004;2022-08-21T15:05:50;27.70;92.00
7206;DHT22;3644;53.480;10.004;2022-08-21T15:08:16;27.80;92.70
7206;DHT22;3644;53.480;10.004;2022-08-21T15:10:42;27.80;91.30
7206;DHT22;3644;53.480;10.004;2022-08-21T15:13:08;27.20;91.80
7206;DHT22;3644;53.480;10.004;2022-08-21T15:15:39;27.30;93.00
7206;DHT22;3644;53.480;10.004;2022-08-21T15:18:05;27.50;93.00
7206;DHT22;3644;53.480;10.004;2022-08-21T15:20:31;27.50;91.50
7206;DHT22;3644;53.480;10.004;2022-08-21T15:22:56;27.30;91.70
7206;DHT22;3644;53.480;10.004;2022-08-21T15:25:22;27.30;91.90
7206;DHT22;3644;53.480;10.004;2022-08-21T15:27:48;27.40;93.20
7206;DHT22;3644;53.480;10.004;2022-08-21T15:30:13;27.50;92.60
7206;DHT22;3644;53.480;10.004;2022-08-21T15:32:39;27.50;93.40
7206;DHT22;3644;53.480;10.004;2022-08-21T15:35:06;27.80;93.10
7206;DHT22;3644;53.480;10.004;2022-08-21T15:37:31;27.80;92.50
7206;DHT22;3644;53.480;10.004;2022-08-21T15:39:57;27.80;92.50
7206;DHT22;3644;53.480;10.004;2022-08-21T15:42:24;27.60;92.50
7206;DHT22;3644;53.480;10.004;2022-08-21T15:44:50;27.40;92.60
7206;DHT22;3644;53.480;10.004;2022-08-21T15:47:20;27.30;92.40
7206;DHT22;3644;53.480;10.004;2022-08-21T15:49:46;27.40;93.70
7206;DHT22;3644;53.480;10.004;2022-08-21T15:52:18;27.60;93.80
7206;DHT22;3644;53.480;10.004;2022-08-21T15:54:45;27.80;92.90
7206;DHT22;3644;53.480;10.004;2022-08-21T15:57:13;27.80;91.40
7206;DHT22;3644;53.480;10.004;2022-08-21T15:59:42;27.40;91.80
7206;DHT22;3644;53.480;10.004;2022-08-21T16:02:13;27.50;92.10
7206;DHT22;3644;53.480;10.004;2022-08-21T16:04:41;27.60;92.60
7206;DHT22;3644;53.480;10.004;2022-08-21T16:07:07;27.90;92.50
7206;DHT22;3644;53.480;10.004;2022-08-21T16:09:32;27.80;91.40
7206;DHT22;3644;53.480;10.004;2022-08-21T16:12:01;27.80;91.50
7206;DHT22;3644;53.480;10.004;2022-08-21T16:14:29;27.80;91.90
7206;DHT22;3644;53.480;10.004;2022-08-21T16:16:56;27.60;91.60
7206;DHT22;3644;53.480;10.004;2022-08-21T16:19:22;27.60;91.50
7206;DHT22;3644;53.480;10.004;2022-08-21T16:21:47;27.40;91.60
7206;DHT22;3644;53.480;10.004;2022-08-21T16:24:13;27.30;91.60
7206;DHT22;3644;53.480;10.004;2022-08-21T16:26:38;27.40;91.70
7206;DHT22;3644;53.480;10.004;2022-08-21T16:29:05;27.40;91.70
7206;DHT22;3644;53.480;10.004;2022-08-21T16:31:32;27.40;92.30
7206;DHT22;3644;53.480;10.004;2022-08-21T16:33:57;27.40;91.60
7206;DHT22;3644;53.480;10.004;2022-08-21T16:36:24;27.50;92.80
7206;DHT22;3644;53.480;10.004;2022-08-21T16:38:54;27.50;93.00
7206;DHT22;3644;53.480;10.004;2022-08-21T16:41:21;27.60;93.50
7206;DHT22;3644;53.480;10.004;2022-08-21T16:43:48;27.70;92.80
7206;DHT22;3644;53.480;10.004;2022-08-21T16:46:15;27.50;91.80
7206;DHT22;3644;53.480;10.004;2022-08-21T16:48:42;27.30;92.60
7206;DHT22;3644;53.480;10.004;2022-08-21T16:51:12;26.90;92.00
7206;DHT22;3644;53.480;10.004;2022-08-21T16:53:38;26.80;92.20
7206;DHT22;3644;53.480;10.004;2022-08-21T16:56:04;26.80;93.30
7206;DHT22;3644;53.480;10.004;2022-08-21T16:58:36;26.70;92.60
7206;DHT22;3644;53.480;10.004;2022-08-21T17:01:07;26.80;93.30